createdAt,value
2022-07-27T00:01:13.237Z,25.33
2022-07-27T00:03:41.734Z,25.27
2022-07-27T00:06:09.499Z,25.25
2022-07-27T00:08:37.128Z,25.26
2022-07-27T00:11:05.098Z,25.29
2022-07-27T00:13:32.703Z,25.31
2022-07-27T00:16:00.372Z,25.28
2022-07-27T00:18:28.223Z,25.22
2022-07-27T00:20:55.952Z,25.25
2022-07-27T00:23:23.421Z,25.23
2022-07-27T00:25:51.359Z,25.20
2022-07-27T00:28:18.927Z,25.10
2022-07-27T00:30:46.792Z,25.22
2022-07-27T00:33:17.264Z,25.24
2022-07-27T00:35:45.999Z,25.17
2022-07-27T00:38:14.212Z,25.10
2022-07-27T00:40:41.845Z,25.19
2022-07-27T00:43:09.391Z,24.95
2022-07-27T00:45:37.172Z,24.93
2022-07-27T00:48:05.216Z,25.00
2022-07-27T00:50:32.913Z,24.90
2022-07-27T00:53:00.733Z,24.67
2022-07-27T00:55:28.486Z,24.60
2022-07-27T00:57:58.796Z,24.40
2022-07-27T01:00:28.356Z,24.06
2022-07-27T01:02:57.318Z,23.86
2022-07-27T01:05:36.148Z,23.80
2022-07-27T01:08:06.700Z,23.72
2022-07-27T01:10:34.761Z,24.08
2022-07-27T01:13:02.739Z,24.01
2022-07-27T01:15:31.074Z,24.18
2022-07-27T01:18:03.042Z,24.11
2022-07-27T01:20:31.001Z,24.33
2022-07-27T01:22:58.471Z,24.31
2022-07-27T01:25:26.284Z,24.34
2022-07-27T01:27:54.137Z,24.13
2022-07-27T01:30:27.725Z,24.08
2022-07-27T01:33:03.204Z,24.11
2022-07-27T01:35:31.188Z,24.13
2022-07-27T01:37:59.080Z,23.83
2022-07-27T01:40:27.034Z,23.77
2022-07-27T01:42:54.731Z,23.85
2022-07-27T01:45:22.637Z,23.56
2022-07-27T01:47:50.089Z,23.65
2022-07-27T01:50:17.551Z,23.63
2022-07-27T01:52:45.326Z,23.65
2022-07-27T01:55:12.936Z,23.72
2022-07-27T01:57:40.686Z,23.82
2022-07-27T02:00:13.772Z,23.80
2022-07-27T02:02:42.038Z,23.73
2022-07-27T02:05:12.646Z,23.36
2022-07-27T02:07:41.030Z,23.80
2022-07-27T02:10:10.037Z,24.11
2022-07-27T02:12:38.097Z,24.10
2022-07-27T02:15:19.661Z,24.23
2022-07-27T02:17:49.246Z,24.08
2022-07-27T02:20:19.771Z,23.71
2022-07-27T02:22:47.612Z,23.78
2022-07-27T02:25:17.326Z,23.73
2022-07-27T02:27:45.285Z,23.58
2022-07-27T02:30:13.654Z,22.91
2022-07-27T02:32:44.131Z,23.45
2022-07-27T02:35:18.703Z,23.41
2022-07-27T02:37:48.640Z,23.40
2022-07-27T02:40:17.600Z,23.54
2022-07-27T02:42:46.311Z,23.16
2022-07-27T02:45:17.183Z,23.52
2022-07-27T02:47:45.043Z,23.46
2022-07-27T02:50:12.846Z,23.51
2022-07-27T02:52:40.629Z,23.57
2022-07-27T02:55:09.065Z,23.43
2022-07-27T02:57:38.045Z,23.27
2022-07-27T03:00:13.620Z,23.20
2022-07-27T03:02:41.339Z,23.41
2022-07-27T03:05:10.743Z,22.88
2022-07-27T03:07:38.308Z,23.33
2022-07-27T03:10:06.583Z,22.95
2022-07-27T03:12:34.477Z,23.13
2022-07-27T03:15:01.942Z,23.17
2022-07-27T03:17:29.514Z,23.40
2022-07-27T03:19:57.307Z,23.17
2022-07-27T03:22:24.730Z,23.26
2022-07-27T03:24:52.199Z,23.12
2022-07-27T03:27:20.034Z,23.34
2022-07-27T03:29:47.536Z,23.33
2022-07-27T03:32:15.030Z,23.32
2022-07-27T03:34:42.800Z,23.25
2022-07-27T03:37:10.385Z,23.38
2022-07-27T03:39:37.961Z,23.45
2022-07-27T03:42:05.957Z,23.60
2022-07-27T03:44:33.519Z,23.60
2022-07-27T03:47:01.097Z,23.80
2022-07-27T03:49:28.922Z,23.83
2022-07-27T03:51:56.452Z,23.86
2022-07-27T03:54:23.952Z,23.98
2022-07-27T03:56:51.761Z,23.98
2022-07-27T03:59:19.258Z,23.78
2022-07-27T04:01:47.204Z,24.03
2022-07-27T04:04:15.226Z,24.02
2022-07-27T04:06:42.939Z,24.23
2022-07-27T04:09:10.455Z,24.00
2022-07-27T04:11:43.605Z,24.29
2022-07-27T04:14:12.954Z,24.30
2022-07-27T04:16:41.452Z,24.39
2022-07-27T04:19:09.473Z,24.38
2022-07-27T04:21:38.003Z,24.42
2022-07-27T04:24:07.108Z,24.47
2022-07-27T04:26:34.610Z,24.47
2022-07-27T04:29:02.125Z,24.34
2022-07-27T04:31:29.861Z,24.39
2022-07-27T04:33:57.591Z,24.47
2022-07-27T04:36:25.019Z,24.54
2022-07-27T04:38:52.765Z,24.60
2022-07-27T04:41:20.235Z,24.40
2022-07-27T04:43:47.710Z,24.73
2022-07-27T04:46:15.834Z,24.90
2022-07-27T04:48:48.818Z,25.02
2022-07-27T04:51:18.188Z,24.83
2022-07-27T04:53:53.539Z,25.04
2022-07-27T04:56:27.151Z,25.08
2022-07-27T04:58:57.741Z,24.94
2022-07-27T05:01:26.669Z,25.23
2022-07-27T05:03:56.252Z,25.30
2022-07-27T05:06:23.784Z,25.18
2022-07-27T05:08:51.339Z,25.23
2022-07-27T05:11:19.141Z,25.40
2022-07-27T05:13:46.622Z,25.50
2022-07-27T05:16:14.215Z,25.70
2022-07-27T05:18:42.277Z,25.76
2022-07-27T05:21:09.811Z,25.69
2022-07-27T05:23:37.345Z,25.83
2022-07-27T05:26:05.191Z,25.85
2022-07-27T05:28:32.676Z,25.74
2022-07-27T05:31:00.239Z,25.92
2022-07-27T05:33:28.243Z,26.01
2022-07-27T05:35:56.494Z,26.25
2022-07-27T05:38:24.040Z,26.40
2022-07-27T05:40:53.359Z,26.20
2022-07-27T05:43:20.970Z,26.37
2022-07-27T05:45:48.608Z,26.39
2022-07-27T05:48:16.454Z,26.02
2022-07-27T05:50:44.045Z,26.12
2022-07-27T05:53:11.567Z,26.50
2022-07-27T05:55:39.396Z,26.47
2022-07-27T05:58:26.063Z,26.50
2022-07-27T06:00:54.355Z,26.80
2022-07-27T06:03:22.905Z,26.79
2022-07-27T06:05:50.472Z,26.77
2022-07-27T06:08:18.025Z,26.86
2022-07-27T06:10:45.874Z,27.07
2022-07-27T06:13:13.972Z,27.13
2022-07-27T06:15:41.505Z,27.14
2022-07-27T06:18:16.801Z,26.96
2022-07-27T06:20:45.755Z,27.10
2022-07-27T06:23:13.672Z,27.44
2022-07-27T06:25:41.140Z,27.37
2022-07-27T06:28:09.354Z,27.76
2022-07-27T06:30:37.110Z,27.74
2022-07-27T06:33:06.172Z,27.80
2022-07-27T06:35:34.512Z,27.95
2022-07-27T06:38:05.848Z,27.56
2022-07-27T06:40:33.458Z,27.67
2022-07-27T06:43:01.054Z,27.70
2022-07-27T06:45:28.997Z,27.79
2022-07-27T06:47:56.499Z,27.84
2022-07-27T06:50:24.232Z,28.03
2022-07-27T06:52:52.163Z,27.59
2022-07-27T06:55:19.654Z,27.35
2022-07-27T06:57:47.391Z,27.76
2022-07-27T07:00:15.469Z,27.44
2022-07-27T07:02:56.400Z,27.45
2022-07-27T07:05:27.347Z,27.71
2022-07-27T07:07:55.518Z,28.13
2022-07-27T07:10:24.743Z,28.27
2022-07-27T07:12:56.059Z,28.45
2022-07-27T07:15:25.152Z,28.32
2022-07-27T07:17:54.344Z,28.44
2022-07-27T07:20:22.224Z,28.69
2022-07-27T07:22:50.386Z,28.52
2022-07-27T07:25:18.159Z,28.22
2022-07-27T07:27:45.656Z,28.33
2022-07-27T07:30:13.330Z,28.45
2022-07-27T07:32:41.130Z,28.59
2022-07-27T07:35:09.297Z,27.99
2022-07-27T07:37:36.789Z,28.40
2022-07-27T07:40:40.041Z,28.62
2022-07-27T07:42:56.498Z,28.47
2022-07-27T07:45:24.900Z,28.26
2022-07-27T07:47:52.952Z,28.48
2022-07-27T07:50:21.422Z,28.45
2022-07-27T07:52:50.893Z,28.72
2022-07-27T07:55:23.329Z,28.79
2022-07-27T07:57:51.193Z,28.67
2022-07-27T08:00:20.929Z,28.91
2022-07-27T08:02:49.747Z,28.57
2022-07-27T08:05:17.628Z,28.70
2022-07-27T08:07:45.946Z,28.25
2022-07-27T08:10:15.155Z,28.63
2022-07-27T08:12:45.043Z,28.71
2022-07-27T08:15:13.765Z,28.97
2022-07-27T08:17:42.625Z,29.11
2022-07-27T08:20:11.233Z,29.30
2022-07-27T08:22:39.026Z,28.84
2022-07-27T08:25:08.323Z,29.17
2022-07-27T08:27:40.681Z,28.86
2022-07-27T08:30:10.648Z,28.72
2022-07-27T08:32:55.168Z,29.27
2022-07-27T08:35:23.123Z,29.36
2022-07-27T08:37:52.692Z,28.83
2022-07-27T08:40:41.853Z,29.15
2022-07-27T08:43:13.253Z,29.01
2022-07-27T08:45:41.869Z,29.53
2022-07-27T08:48:14.004Z,29.49
2022-07-27T08:50:42.726Z,29.95
2022-07-27T08:53:13.172Z,29.59
2022-07-27T08:55:42.545Z,29.60
2022-07-27T08:58:12.306Z,29.80
2022-07-27T09:00:45.400Z,29.73
2022-07-27T09:03:19.026Z,29.97
2022-07-27T09:05:53.267Z,29.96
2022-07-27T09:08:28.843Z,29.66
2022-07-27T09:10:59.580Z,30.16
2022-07-27T09:13:34.784Z,29.54
2022-07-27T09:16:23.517Z,30.11
2022-07-27T09:19:00.754Z,29.76
2022-07-27T09:21:28.608Z,30.16
2022-07-27T09:24:29.781Z,30.20
2022-07-27T09:27:04.857Z,30.46
2022-07-27T09:29:37.136Z,31.04
2022-07-27T09:32:15.849Z,30.63
2022-07-27T09:34:44.142Z,30.33
2022-07-27T09:37:12.490Z,30.40
2022-07-27T09:39:40.151Z,30.57
2022-07-27T09:42:47.860Z,31.27
2022-07-27T09:45:04.185Z,31.21
2022-07-27T09:47:32.052Z,30.69
2022-07-27T09:50:20.829Z,30.58
2022-07-27T09:52:48.632Z,30.57
2022-07-27T09:55:19.981Z,30.81
2022-07-27T09:57:56.416Z,31.39
2022-07-27T10:00:25.796Z,31.73
2022-07-27T10:02:54.136Z,31.78
2022-07-27T10:05:22.981Z,31.93
2022-07-27T10:07:52.562Z,31.93
2022-07-27T10:10:20.922Z,31.88
2022-07-27T10:12:54.041Z,32.40
2022-07-27T10:15:24.079Z,32.64
2022-07-27T10:17:59.165Z,33.01
2022-07-27T10:20:27.389Z,33.06
2022-07-27T10:22:58.661Z,33.34
2022-07-27T10:25:32.518Z,33.08
2022-07-27T10:28:17.890Z,32.98
2022-07-27T10:30:48.316Z,33.50
2022-07-27T10:33:42.806Z,33.59
2022-07-27T10:36:19.665Z,33.40
2022-07-27T10:38:49.766Z,33.36
2022-07-27T10:41:40.898Z,33.13
2022-07-27T10:44:14.970Z,33.52
2022-07-27T10:46:46.708Z,33.48
2022-07-27T10:49:25.000Z,33.48
2022-07-27T10:51:53.299Z,33.60
2022-07-27T10:54:52.691Z,33.74
2022-07-27T10:57:26.945Z,33.95
2022-07-27T11:00:14.731Z,33.39
2022-07-27T11:02:42.720Z,33.73
2022-07-27T11:08:35.501Z,33.63
2022-07-27T11:10:50.489Z,33.90
2022-07-27T11:13:19.199Z,34.06
2022-07-27T11:16:22.841Z,33.96
2022-07-27T11:18:54.966Z,33.91
2022-07-27T11:21:28.805Z,34.08
2022-07-27T11:24:05.959Z,34.39
2022-07-27T11:26:39.511Z,34.41
2022-07-27T11:29:09.371Z,34.20
2022-07-27T11:31:54.694Z,33.36
2022-07-27T11:34:35.809Z,33.76
2022-07-27T11:37:13.806Z,33.49
2022-07-27T11:39:59.747Z,33.33
2022-07-27T11:42:38.424Z,33.42
2022-07-27T11:45:07.546Z,33.54
2022-07-27T11:47:36.059Z,33.44
2022-07-27T11:50:08.284Z,33.77
2022-07-27T11:52:36.131Z,33.75
2022-07-27T11:55:03.942Z,33.40
2022-07-27T11:57:33.032Z,32.96
2022-07-27T12:00:02.209Z,32.87
2022-07-27T12:02:51.325Z,32.59
2022-07-27T12:05:19.338Z,32.74
2022-07-27T12:07:47.411Z,32.90
2022-07-27T12:10:14.900Z,33.11
2022-07-27T12:12:49.232Z,32.97
2022-07-27T12:18:06.732Z,33.25
2022-07-27T12:20:35.553Z,33.29
2022-07-27T12:23:07.825Z,32.92
2022-07-27T12:25:36.375Z,33.12
2022-07-27T12:28:13.521Z,33.45
2022-07-27T12:30:49.432Z,33.10
2022-07-27T12:33:35.623Z,33.22
2022-07-27T12:36:05.772Z,33.28
2022-07-27T12:38:51.501Z,33.25
2022-07-27T12:41:26.647Z,33.23
2022-07-27T12:44:09.285Z,33.19
2022-07-27T12:46:56.398Z,33.02
2022-07-27T12:49:34.371Z,32.79
2022-07-27T12:52:07.017Z,33.15
2022-07-27T12:54:34.755Z,33.30
2022-07-27T12:57:02.767Z,32.56
2022-07-27T12:59:30.336Z,32.86
2022-07-27T13:01:57.965Z,32.59
2022-07-27T13:04:26.137Z,32.37
2022-07-27T13:06:53.773Z,32.60
2022-07-27T13:09:21.302Z,33.12
2022-07-27T13:11:49.118Z,32.93
2022-07-27T13:14:16.596Z,33.14
2022-07-27T13:16:44.247Z,33.31
2022-07-27T13:19:15.349Z,32.88
2022-07-27T13:21:43.359Z,32.70
2022-07-27T13:24:11.493Z,33.24
2022-07-27T13:26:40.821Z,33.22
2022-07-27T13:29:08.332Z,32.89
2022-07-27T13:31:37.116Z,33.28
2022-07-27T13:34:05.026Z,33.04
2022-07-27T13:36:32.494Z,33.23
2022-07-27T13:38:59.994Z,33.06
2022-07-27T13:41:27.880Z,33.31
2022-07-27T13:43:55.366Z,33.51
2022-07-27T13:46:22.912Z,33.54
2022-07-27T13:48:50.800Z,33.58
2022-07-27T13:51:18.345Z,33.08
2022-07-27T13:53:46.842Z,33.25
2022-07-27T13:56:14.665Z,33.14
2022-07-27T13:58:42.671Z,33.00
2022-07-27T14:01:11.368Z,33.10
2022-07-27T14:03:39.612Z,33.50
2022-07-27T14:06:07.206Z,33.87
2022-07-27T14:08:36.615Z,33.58
2022-07-27T14:11:05.202Z,33.62
2022-07-27T14:13:32.847Z,33.88
2022-07-27T14:16:01.680Z,34.00
2022-07-27T14:18:30.935Z,33.94
2022-07-27T14:21:00.736Z,34.19
2022-07-27T14:23:28.875Z,34.25
2022-07-27T14:25:58.488Z,34.14
2022-07-27T14:28:27.754Z,33.80
2022-07-27T14:30:56.361Z,33.94
2022-07-27T14:33:25.852Z,33.78
2022-07-27T14:36:00.051Z,34.05
2022-07-27T14:38:30.884Z,33.58
2022-07-27T14:41:00.828Z,34.05
2022-07-27T14:43:29.823Z,34.14
2022-07-27T14:45:57.612Z,34.36
2022-07-27T14:48:37.118Z,34.26
2022-07-27T14:51:12.961Z,33.91
2022-07-27T14:53:40.515Z,33.70
2022-07-27T14:56:07.991Z,34.08
2022-07-27T14:58:35.819Z,33.97
2022-07-27T15:01:03.618Z,33.96
2022-07-27T15:03:31.255Z,33.91
2022-07-27T15:05:59.038Z,34.14
2022-07-27T15:08:26.603Z,34.31
2022-07-27T15:10:54.245Z,33.97
2022-07-27T15:13:22.019Z,34.14
2022-07-27T15:15:50.845Z,33.71
2022-07-27T15:18:21.030Z,33.76
2022-07-27T15:20:48.865Z,34.03
2022-07-27T15:23:16.787Z,33.45
2022-07-27T15:25:44.542Z,33.94
2022-07-27T15:28:12.863Z,33.98
2022-07-27T15:30:41.027Z,34.28
2022-07-27T15:33:08.679Z,34.11
2022-07-27T15:35:36.468Z,34.33
2022-07-27T15:38:04.015Z,34.32
2022-07-27T15:40:37.830Z,34.41
2022-07-27T15:43:06.951Z,34.56
2022-07-27T15:45:38.712Z,34.42
2022-07-27T15:48:08.563Z,34.13
2022-07-27T15:50:37.499Z,34.02
2022-07-27T15:53:06.081Z,33.64
2022-07-27T15:55:34.438Z,33.61
2022-07-27T15:58:01.945Z,33.61
2022-07-27T16:00:29.672Z,33.75
2022-07-27T16:02:57.562Z,33.15
2022-07-27T16:05:25.539Z,33.48
2022-07-27T16:07:53.049Z,33.49
2022-07-27T16:10:20.872Z,33.35
2022-07-27T16:12:48.778Z,32.77
2022-07-27T16:15:16.304Z,33.10
2022-07-27T16:17:45.617Z,32.83
2022-07-27T16:20:13.467Z,32.48
2022-07-27T16:22:41.063Z,32.16
2022-07-27T16:25:08.951Z,31.99
2022-07-27T16:27:36.449Z,32.08
2022-07-27T16:30:04.487Z,32.00
2022-07-27T16:32:32.385Z,31.92
2022-07-27T16:34:59.909Z,32.50
2022-07-27T16:37:27.473Z,32.48
2022-07-27T16:39:55.278Z,32.18
2022-07-27T16:42:22.824Z,32.32
2022-07-27T16:44:50.382Z,32.53
2022-07-27T16:47:18.169Z,32.45
2022-07-27T16:49:45.717Z,32.47
2022-07-27T16:52:13.555Z,32.15
2022-07-27T16:54:41.321Z,32.12
2022-07-27T16:57:10.626Z,32.04
2022-07-27T16:59:41.714Z,31.30
2022-07-27T17:02:09.654Z,31.17
2022-07-27T17:04:37.927Z,31.50
2022-07-27T17:07:06.212Z,31.50
2022-07-27T17:09:41.317Z,31.51
2022-07-27T17:12:09.146Z,31.67
2022-07-27T17:14:36.664Z,31.88
2022-07-27T17:17:04.545Z,31.36
2022-07-27T17:19:32.095Z,30.84
2022-07-27T17:21:59.746Z,30.03
2022-07-27T17:24:27.589Z,30.30
2022-07-27T17:26:55.158Z,30.44
2022-07-27T17:29:23.737Z,29.77
2022-07-27T17:31:51.829Z,29.63
2022-07-27T17:34:19.510Z,29.27
2022-07-27T17:36:47.220Z,29.76
2022-07-27T17:39:15.261Z,29.99
2022-07-27T17:41:43.626Z,30.04
2022-07-27T17:44:11.471Z,29.39
2022-07-27T17:46:39.365Z,29.46
2022-07-27T17:49:07.039Z,29.03
2022-07-27T17:51:37.116Z,29.64
2022-07-27T17:54:05.202Z,29.33
2022-07-27T17:56:32.714Z,29.65
2022-07-27T17:59:14.388Z,29.91
2022-07-27T18:01:48.697Z,30.10
2022-07-27T18:04:16.683Z,29.73
2022-07-27T18:06:44.318Z,29.87
2022-07-27T18:09:12.174Z,29.78
2022-07-27T18:11:40.493Z,29.81
2022-07-27T18:14:08.181Z,29.94
2022-07-27T18:16:40.362Z,29.85
2022-07-27T18:19:08.940Z,30.08
2022-07-27T18:21:36.570Z,30.07
2022-07-27T18:24:04.371Z,30.20
2022-07-27T18:26:32.170Z,30.16
2022-07-27T18:28:59.792Z,30.22
2022-07-27T18:31:27.648Z,30.27
2022-07-27T18:33:56.079Z,29.93
2022-07-27T18:36:23.703Z,29.21
2022-07-27T18:38:51.628Z,29.10
2022-07-27T18:41:19.479Z,28.96
2022-07-27T18:43:56.342Z,28.88
2022-07-27T18:46:24.243Z,28.23
2022-07-27T18:48:51.866Z,27.92
2022-07-27T18:51:19.449Z,28.34
2022-07-27T18:53:48.871Z,27.74
2022-07-27T18:56:16.489Z,27.96
2022-07-27T18:58:44.048Z,28.00
2022-07-27T19:01:11.932Z,27.50
2022-07-27T19:03:40.631Z,28.02
2022-07-27T19:06:11.341Z,27.53
2022-07-27T19:08:45.795Z,27.56
2022-07-27T19:11:13.397Z,27.75
2022-07-27T19:13:41.233Z,27.98
2022-07-27T19:16:09.630Z,28.10
2022-07-27T19:18:37.192Z,28.30
2022-07-27T19:21:04.720Z,28.45
2022-07-27T19:23:32.740Z,28.16
2022-07-27T19:26:00.658Z,28.24
2022-07-27T19:28:28.343Z,28.15
2022-07-27T19:30:56.176Z,27.69
2022-07-27T19:33:23.777Z,27.48
2022-07-27T19:35:52.592Z,28.18
2022-07-27T19:38:20.464Z,28.21
2022-07-27T19:40:48.357Z,28.46
2022-07-27T19:43:15.973Z,28.33
2022-07-27T19:45:43.884Z,28.45
2022-07-27T19:48:12.007Z,27.98
2022-07-27T19:50:39.925Z,27.64
2022-07-27T19:53:08.091Z,27.17
2022-07-27T19:55:36.148Z,27.53
2022-07-27T19:58:04.167Z,27.84
2022-07-27T20:00:32.380Z,27.93
2022-07-27T20:03:00.482Z,27.63
2022-07-27T20:05:28.196Z,27.58
2022-07-27T20:07:55.735Z,26.89
2022-07-27T20:10:25.354Z,27.12
2022-07-27T20:12:53.136Z,27.24
2022-07-27T20:15:22.317Z,26.79
2022-07-27T20:17:50.743Z,26.76
2022-07-27T20:20:18.390Z,26.90
2022-07-27T20:22:46.112Z,26.93
2022-07-27T20:25:14.962Z,26.79
2022-07-27T20:27:42.865Z,26.89
2022-07-27T20:30:11.762Z,26.93
2022-07-27T20:32:39.603Z,26.98
2022-07-27T20:35:07.397Z,26.70
2022-07-27T20:37:35.175Z,27.15
2022-07-27T20:40:05.335Z,26.91
2022-07-27T20:42:33.106Z,27.36
2022-07-27T20:45:00.694Z,27.34
2022-07-27T20:47:34.318Z,27.24
2022-07-27T20:50:02.340Z,26.96
2022-07-27T20:52:30.204Z,26.37
2022-07-27T20:54:57.876Z,26.82
2022-07-27T20:57:25.404Z,27.03
2022-07-27T20:59:53.280Z,26.37
2022-07-27T21:02:20.951Z,26.91
2022-07-27T21:04:48.598Z,27.16
2022-07-27T21:07:16.365Z,26.91
2022-07-27T21:09:43.875Z,26.85
2022-07-27T21:12:11.419Z,26.54
2022-07-27T21:14:39.238Z,25.55
2022-07-27T21:17:06.865Z,25.78
2022-07-27T21:19:34.616Z,25.90
2022-07-27T21:22:02.438Z,26.19
2022-07-27T21:24:29.985Z,26.22
2022-07-27T21:27:00.954Z,26.28
2022-07-27T21:29:32.420Z,25.87
2022-07-27T21:31:59.930Z,25.17
2022-07-27T21:34:27.582Z,25.41
2022-07-27T21:36:55.547Z,25.78
2022-07-27T21:39:24.104Z,25.17
2022-07-27T21:41:51.711Z,25.94
2022-07-27T21:44:19.457Z,25.84
2022-07-27T21:46:48.459Z,25.49
2022-07-27T21:49:16.065Z,25.87
2022-07-27T21:51:43.870Z,26.20
2022-07-27T21:54:11.710Z,26.05
2022-07-27T21:56:41.086Z,26.12
2022-07-27T21:59:10.253Z,26.26
2022-07-27T22:01:37.898Z,26.47
2022-07-27T22:04:06.305Z,26.41
2022-07-27T22:06:34.023Z,26.59
2022-07-27T22:09:01.594Z,26.97
2022-07-27T22:11:29.339Z,27.04
2022-07-27T22:13:56.825Z,27.12
2022-07-27T22:16:24.484Z,27.25
2022-07-27T22:18:52.334Z,27.46
2022-07-27T22:21:19.822Z,27.37
2022-07-27T22:23:49.255Z,27.50
2022-07-27T22:26:17.467Z,27.57
2022-07-27T22:28:45.007Z,27.63
2022-07-27T22:31:21.150Z,27.72
2022-07-27T22:33:51.082Z,27.71
2022-07-27T22:36:18.996Z,27.58
2022-07-27T22:38:46.537Z,27.53
2022-07-27T22:41:14.381Z,27.71
2022-07-27T22:43:41.886Z,27.57
2022-07-27T22:46:10.125Z,27.80
2022-07-27T22:48:38.412Z,27.77
2022-07-27T22:51:05.913Z,27.78
2022-07-27T22:53:33.893Z,27.59
2022-07-27T22:56:01.635Z,27.62
2022-07-27T22:58:29.151Z,27.75
2022-07-27T23:00:59.694Z,27.79
2022-07-27T23:03:27.831Z,27.83
2022-07-27T23:05:55.304Z,27.41
2022-07-27T23:08:22.825Z,27.49
2022-07-27T23:10:50.628Z,27.40
2022-07-27T23:13:19.365Z,27.58
2022-07-27T23:15:47.538Z,27.60
2022-07-27T23:18:16.818Z,27.66
2022-07-27T23:20:45.122Z,27.77
2022-07-27T23:23:16.794Z,27.76
2022-07-27T23:25:46.032Z,27.70
2022-07-27T23:28:15.220Z,27.79
2022-07-27T23:30:42.912Z,27.75
2022-07-27T23:33:10.775Z,27.85
2022-07-27T23:35:38.394Z,27.94
2022-07-27T23:38:05.976Z,27.92
2022-07-27T23:40:33.727Z,27.75
2022-07-27T23:43:01.307Z,27.80
2022-07-27T23:45:28.908Z,27.96
2022-07-27T23:47:56.658Z,27.90
2022-07-27T23:50:24.210Z,27.84
2022-07-27T23:52:51.803Z,27.95
2022-07-27T23:55:19.552Z,28.02
2022-07-27T23:57:47.335Z,27.76
